sensor_id;sensor_type;location;lat;lon;timestamp;pressure;altitude;pressure_sealevel;temperature;humidity
52511;BME280;63918;51.700;17.998;2022-11-02T00:01:21;100295.13;;;12.08;100.00
52511;BME280;63918;51.700;17.998;2022-11-02T00:03:49;100293.44;;;12.03;100.00
52511;BME280;63918;51.700;17.998;2022-11-02T00:06:15;100288.27;;;11.95;100.00
52511;BME280;63918;51.700;17.998;2022-11-02T00:08:42;100291.90;;;11.86;100.00
52511;BME280;63918;51.700;17.998;2022-11-02T00:11:08;100292.95;;;11.89;100.00
52511;BME280;63918;51.700;17.998;2022-11-02T00:13:35;100293.98;;;11.89;100.00
52511;BME280;63918;51.700;17.998;2022-11-02T00:16:07;100291.73;;;11.80;100.00
52511;BME280;63918;51.700;17.998;2022-11-02T00:18:36;100294.46;;;11.72;100.00
52511;BME280;63918;51.700;17.998;2022-11-02T00:21:03;100297.44;;;11.67;100.00
52511;BME280;63918;51.700;17.998;2022-11-02T00:23:30;100297.71;;;11.62;100.00
52511;BME280;63918;51.700;17.998;2022-11-02T00:25:57;100292.77;;;11.64;100.00
52511;BME280;63918;51.700;17.998;2022-11-02T00:28:26;100292.17;;;11.64;100.00
52511;BME280;63918;51.700;17.998;2022-11-02T00:30:53;100296.61;;;11.57;100.00
52511;BME280;63918;51.700;17.998;2022-11-02T00:33:20;100296.39;;;11.49;100.00
52511;BME280;63918;51.700;17.998;2022-11-02T00:35:46;100294.41;;;11.46;100.00
52511;BME280;63918;51.700;17.998;2022-11-02T00:38:13;100294.39;;;11.40;100.00
52511;BME280;63918;51.700;17.998;2022-11-02T00:40:39;100299.66;;;11.34;100.00
52511;BME280;63918;51.700;17.998;2022-11-02T00:43:06;100301.05;;;11.28;100.00
52511;BME280;63918;51.700;17.998;2022-11-02T00:45:32;100300.27;;;11.22;100.00
52511;BME280;63918;51.700;17.998;2022-11-02T00:47:59;100298.51;;;11.17;100.00
52511;BME280;63918;51.700;17.998;2022-11-02T00:50:25;100300.86;;;11.14;100.00
52511;BME280;63918;51.700;17.998;2022-11-02T00:52:52;100301.02;;;11.15;100.00
52511;BME280;63918;51.700;17.998;2022-11-02T00:55:18;100303.14;;;11.15;100.00
52511;BME280;63918;51.700;17.998;2022-11-02T00:57:46;100299.11;;;11.16;100.00
52511;BME280;63918;51.700;17.998;2022-11-02T01:00:13;100303.34;;;11.19;100.00
52511;BME280;63918;51.700;17.998;2022-11-02T01:02:41;100302.40;;;11.22;100.00
52511;BME280;63918;51.700;17.998;2022-11-02T01:05:08;100298.09;;;11.22;100.00
52511;BME280;63918;51.700;17.998;2022-11-02T01:07:35;100305.25;;;11.25;100.00
52511;BME280;63918;51.700;17.998;2022-11-02T01:10:07;100303.03;;;11.23;100.00
52511;BME280;63918;51.700;17.998;2022-11-02T01:12:38;100301.02;;;11.24;100.00
52511;BME280;63918;51.700;17.998;2022-11-02T01:15:06;100302.48;;;11.23;100.00
52511;BME280;63918;51.700;17.998;2022-11-02T01:17:33;100304.63;;;11.21;100.00
52511;BME280;63918;51.700;17.998;2022-11-02T01:20:00;100305.64;;;11.12;100.00
52511;BME280;63918;51.700;17.998;2022-11-02T01:22:27;100308.41;;;11.14;100.00
52511;BME280;63918;51.700;17.998;2022-11-02T01:24:53;100312.58;;;11.18;100.00
52511;BME280;63918;51.700;17.998;2022-11-02T01:27:20;100310.33;;;11.23;100.00
52511;BME280;63918;51.700;17.998;2022-11-02T01:29:47;100306.27;;;11.18;100.00
52511;BME280;63918;51.700;17.998;2022-11-02T01:32:13;100302.06;;;11.13;100.00
52511;BME280;63918;51.700;17.998;2022-11-02T01:34:40;100304.67;;;11.03;100.00
52511;BME280;63918;51.700;17.998;2022-11-02T01:37:06;100304.98;;;11.05;100.00
52511;BME280;63918;51.700;17.998;2022-11-02T01:39:32;100304.66;;;11.05;100.00
52511;BME280;63918;51.700;17.998;2022-11-02T01:41:59;100299.43;;;11.06;100.00
52511;BME280;63918;51.700;17.998;2022-11-02T01:44:31;100301.02;;;10.96;100.00
52511;BME280;63918;51.700;17.998;2022-11-02T01:47:06;100299.17;;;10.94;100.00
52511;BME280;63918;51.700;17.998;2022-11-02T01:49:35;100304.17;;;10.93;100.00
52511;BME280;63918;51.700;17.998;2022-11-02T01:52:09;100307.73;;;10.87;100.00
52511;BME280;63918;51.700;17.998;2022-11-02T01:54:42;100305.04;;;10.83;100.00
52511;BME280;63918;51.700;17.998;2022-11-02T01:57:14;100304.83;;;10.80;100.00
52511;BME280;63918;51.700;17.998;2022-11-02T01:59:51;100305.16;;;10.77;100.00
52511;BME280;63918;51.700;17.998;2022-11-02T02:02:23;100306.45;;;10.71;100.00
52511;BME280;63918;51.700;17.998;2022-11-02T02:04:54;100302.41;;;10.60;100.00
52511;BME280;63918;51.700;17.998;2022-11-02T02:07:24;100302.02;;;10.60;100.00
52511;BME280;63918;51.700;17.998;2022-11-02T02:09:53;100300.85;;;10.56;100.00
52511;BME280;63918;51.700;17.998;2022-11-02T02:12:22;100302.00;;;10.49;100.00
52511;BME280;63918;51.700;17.998;2022-11-02T02:14:50;100305.54;;;10.46;100.00
52511;BME280;63918;51.700;17.998;2022-11-02T02:17:52;100313.38;;;10.37;100.00
52511;BME280;63918;51.700;17.998;2022-11-02T02:20:42;100311.72;;;10.32;100.00
52511;BME280;63918;51.700;17.998;2022-11-02T02:29:04;100316.46;;;10.19;100.00
52511;BME280;63918;51.700;17.998;2022-11-02T02:31:42;100319.84;;;10.18;100.00
52511;BME280;63918;51.700;17.998;2022-11-02T02:34:17;100317.56;;;10.11;100.00
52511;BME280;63918;51.700;17.998;2022-11-02T02:36:56;100316.93;;;10.07;100.00
52511;BME280;63918;51.700;17.998;2022-11-02T02:39:46;100322.44;;;10.12;100.00
52511;BME280;63918;51.700;17.998;2022-11-02T02:42:24;100322.54;;;10.05;100.00
52511;BME280;63918;51.700;17.998;2022-11-02T02:47:42;100326.71;;;9.92;100.00
52511;BME280;63918;51.700;17.998;2022-11-02T02:50:17;100327.64;;;9.93;100.00
52511;BME280;63918;51.700;17.998;2022-11-02T02:52:48;100333.34;;;9.93;100.00
52511;BME280;63918;51.700;17.998;2022-11-02T02:55:19;100332.90;;;9.87;100.00
52511;BME280;63918;51.700;17.998;2022-11-02T02:57:48;100335.13;;;9.84;100.00
52511;BME280;63918;51.700;17.998;2022-11-02T03:00:17;100339.14;;;9.80;100.00
52511;BME280;63918;51.700;17.998;2022-11-02T03:02:45;100342.83;;;9.81;100.00
52511;BME280;63918;51.700;17.998;2022-11-02T03:05:34;100343.26;;;9.77;100.00
52511;BME280;63918;51.700;17.998;2022-11-02T03:08:05;100338.54;;;9.69;100.00
52511;BME280;63918;51.700;17.998;2022-11-02T03:10:47;100337.92;;;9.61;100.00
52511;BME280;63918;51.700;17.998;2022-11-02T03:16:25;100341.13;;;9.60;100.00
52511;BME280;63918;51.700;17.998;2022-11-02T03:18:58;100345.70;;;9.44;100.00
52511;BME280;63918;51.700;17.998;2022-11-02T03:21:36;100346.25;;;9.44;100.00
52511;BME280;63918;51.700;17.998;2022-11-02T03:24:13;100345.44;;;9.50;100.00
52511;BME280;63918;51.700;17.998;2022-11-02T03:27:17;100358.23;;;9.47;100.00
52511;BME280;63918;51.700;17.998;2022-11-02T03:29:55;100359.11;;;9.48;100.00
52511;BME280;63918;51.700;17.998;2022-11-02T03:32:40;100364.93;;;9.54;100.00
52511;BME280;63918;51.700;17.998;2022-11-02T03:35:18;100360.97;;;9.56;100.00
52511;BME280;63918;51.700;17.998;2022-11-02T03:38:03;100361.05;;;9.44;100.00
52511;BME280;63918;51.700;17.998;2022-11-02T03:40:36;100363.71;;;9.47;100.00
52511;BME280;63918;51.700;17.998;2022-11-02T03:43:04;100367.73;;;9.51;100.00
52511;BME280;63918;51.700;17.998;2022-11-02T03:45:37;100369.27;;;9.38;100.00
52511;BME280;63918;51.700;17.998;2022-11-02T03:48:06;100371.84;;;9.43;100.00
52511;BME280;63918;51.700;17.998;2022-11-02T03:50:36;100369.17;;;9.35;100.00
52511;BME280;63918;51.700;17.998;2022-11-02T03:53:13;100367.85;;;9.30;100.00
52511;BME280;63918;51.700;17.998;2022-11-02T03:55:46;100361.95;;;9.31;100.00
52511;BME280;63918;51.700;17.998;2022-11-02T03:58:14;100366.44;;;9.29;100.00
52511;BME280;63918;51.700;17.998;2022-11-02T04:00:49;100365.89;;;9.27;100.00
52511;BME280;63918;51.700;17.998;2022-11-02T04:03:19;100365.79;;;9.29;100.00
52511;BME280;63918;51.700;17.998;2022-11-02T04:05:46;100369.35;;;9.22;100.00
52511;BME280;63918;51.700;17.998;2022-11-02T04:08:14;100370.94;;;9.12;100.00
52511;BME280;63918;51.700;17.998;2022-11-02T04:10:49;100369.52;;;9.09;100.00
52511;BME280;63918;51.700;17.998;2022-11-02T04:13:35;100368.98;;;9.11;100.00
52511;BME280;63918;51.700;17.998;2022-11-02T04:16:21;100369.28;;;9.04;100.00
52511;BME280;63918;51.700;17.998;2022-11-02T04:18:47;100370.14;;;9.02;100.00
52511;BME280;63918;51.700;17.998;2022-11-02T04:21:33;100369.11;;;9.04;100.00
52511;BME280;63918;51.700;17.998;2022-11-02T04:23:59;100369.02;;;9.03;100.00
52511;BME280;63918;51.700;17.998;2022-11-02T04:26:45;100367.50;;;9.04;100.00
52511;BME280;63918;51.700;17.998;2022-11-02T04:29:11;100366.75;;;8.97;100.00
52511;BME280;63918;51.700;17.998;2022-11-02T04:31:38;100364.90;;;8.83;100.00
52511;BME280;63918;51.700;17.998;2022-11-02T04:34:05;100367.86;;;8.77;100.00
52511;BME280;63918;51.700;17.998;2022-11-02T04:36:31;100368.67;;;8.88;100.00
52511;BME280;63918;51.700;17.998;2022-11-02T04:38:58;100370.88;;;8.86;100.00
52511;BME280;63918;51.700;17.998;2022-11-02T04:41:25;100370.13;;;8.87;100.00
52511;BME280;63918;51.700;17.998;2022-11-02T04:44:08;100366.77;;;8.78;100.00
52511;BME280;63918;51.700;17.998;2022-11-02T04:46:37;100371.45;;;8.72;100.00
52511;BME280;63918;51.700;17.998;2022-11-02T04:49:04;100366.70;;;8.65;100.00
52511;BME280;63918;51.700;17.998;2022-11-02T04:51:31;100367.39;;;8.62;100.00
52511;BME280;63918;51.700;17.998;2022-11-02T04:53:58;100370.40;;;8.67;100.00
52511;BME280;63918;51.700;17.998;2022-11-02T04:56:26;100370.30;;;8.69;100.00
52511;BME280;63918;51.700;17.998;2022-11-02T04:58:55;100372.49;;;8.64;100.00
52511;BME280;63918;51.700;17.998;2022-11-02T05:01:23;100371.86;;;8.66;100.00
52511;BME280;63918;51.700;17.998;2022-11-02T05:03:51;100373.43;;;8.67;100.00
52511;BME280;63918;51.700;17.998;2022-11-02T05:06:20;100370.58;;;8.61;100.00
52511;BME280;63918;51.700;17.998;2022-11-02T05:08:47;100372.70;;;8.61;100.00
52511;BME280;63918;51.700;17.998;2022-11-02T05:11:14;100371.91;;;8.68;100.00
52511;BME280;63918;51.700;17.998;2022-11-02T05:13:41;100371.70;;;8.68;100.00
52511;BME280;63918;51.700;17.998;2022-11-02T05:16:11;100375.11;;;8.67;100.00
52511;BME280;63918;51.700;17.998;2022-11-02T05:18:38;100372.46;;;8.68;100.00
52511;BME280;63918;51.700;17.998;2022-11-02T05:21:04;100375.73;;;8.63;100.00
52511;BME280;63918;51.700;17.998;2022-11-02T05:23:31;100381.96;;;8.62;100.00
52511;BME280;63918;51.700;17.998;2022-11-02T05:26:00;100380.04;;;8.59;100.00
52511;BME280;63918;51.700;17.998;2022-11-02T05:28:29;100385.04;;;8.51;100.00
52511;BME280;63918;51.700;17.998;2022-11-02T05:30:58;100384.04;;;8.48;100.00
52511;BME280;63918;51.700;17.998;2022-11-02T05:33:26;100383.09;;;8.53;100.00
52511;BME280;63918;51.700;17.998;2022-11-02T05:35:57;100382.68;;;8.55;100.00
52511;BME280;63918;51.700;17.998;2022-11-02T05:38:24;100389.97;;;8.53;100.00
52511;BME280;63918;51.700;17.998;2022-11-02T05:40:54;100389.95;;;8.44;100.00
52511;BME280;63918;51.700;17.998;2022-11-02T05:43:22;100390.22;;;8.40;100.00
52511;BME280;63918;51.700;17.998;2022-11-02T05:45:55;100394.95;;;8.42;100.00
52511;BME280;63918;51.700;17.998;2022-11-02T05:48:23;100393.80;;;8.50;100.00
52511;BME280;63918;51.700;17.998;2022-11-02T05:51:01;100395.35;;;8.47;100.00
52511;BME280;63918;51.700;17.998;2022-11-02T05:53:29;100395.28;;;8.45;100.00
52511;BME280;63918;51.700;17.998;2022-11-02T05:56:04;100391.64;;;8.44;100.00
52511;BME280;63918;51.700;17.998;2022-11-02T05:58:32;100391.98;;;8.46;100.00
52511;BME280;63918;51.700;17.998;2022-11-02T06:01:00;100396.16;;;8.46;100.00
52511;BME280;63918;51.700;17.998;2022-11-02T06:03:28;100393.18;;;8.47;100.00
52511;BME280;63918;51.700;17.998;2022-11-02T06:06:02;100387.93;;;8.54;100.00
52511;BME280;63918;51.700;17.998;2022-11-02T06:08:33;100390.87;;;8.58;100.00
52511;BME280;63918;51.700;17.998;2022-11-02T06:11:05;100393.15;;;8.58;100.00
52511;BME280;63918;51.700;17.998;2022-11-02T06:13:31;100397.67;;;8.56;100.00
52511;BME280;63918;51.700;17.998;2022-11-02T06:15:59;100396.84;;;8.60;100.00
52511;BME280;63918;51.700;17.998;2022-11-02T06:18:26;100402.20;;;8.68;100.00
52511;BME280;63918;51.700;17.998;2022-11-02T06:20:56;100409.00;;;8.72;100.00
52511;BME280;63918;51.700;17.998;2022-11-02T06:23:24;100407.41;;;8.80;100.00
52511;BME280;63918;51.700;17.998;2022-11-02T06:25:55;100410.56;;;8.82;100.00
52511;BME280;63918;51.700;17.998;2022-11-02T06:28:22;100407.71;;;8.87;100.00
52511;BME280;63918;51.700;17.998;2022-11-02T06:30:49;100413.18;;;8.95;100.00
52511;BME280;63918;51.700;17.998;2022-11-02T06:33:18;100408.47;;;9.06;100.00
52511;BME280;63918;51.700;17.998;2022-11-02T06:35:49;100411.39;;;9.19;100.00
52511;BME280;63918;51.700;17.998;2022-11-02T06:38:17;100411.59;;;9.64;100.00
52511;BME280;63918;51.700;17.998;2022-11-02T06:40:52;100417.86;;;9.80;100.00
52511;BME280;63918;51.700;17.998;2022-11-02T06:43:19;100414.83;;;9.83;100.00
52511;BME280;63918;51.700;17.998;2022-11-02T06:45:45;100411.65;;;9.94;100.00
52511;BME280;63918;51.700;17.998;2022-11-02T06:48:12;100416.30;;;9.96;100.00
52511;BME280;63918;51.700;17.998;2022-11-02T06:50:38;100423.62;;;9.82;100.00
52511;BME280;63918;51.700;17.998;2022-11-02T06:53:05;100426.16;;;9.81;100.00
52511;BME280;63918;51.700;17.998;2022-11-02T06:55:31;100425.56;;;10.01;100.00
52511;BME280;63918;51.700;17.998;2022-11-02T06:57:58;100426.40;;;10.24;100.00
52511;BME280;63918;51.700;17.998;2022-11-02T07:00:24;100433.95;;;10.47;100.00
52511;BME280;63918;51.700;17.998;2022-11-02T07:02:58;100435.69;;;10.54;100.00
52511;BME280;63918;51.700;17.998;2022-11-02T07:05:25;100436.19;;;10.76;100.00
52511;BME280;63918;51.700;17.998;2022-11-02T07:07:52;100440.22;;;10.98;100.00
52511;BME280;63918;51.700;17.998;2022-11-02T07:10:19;100436.58;;;11.18;100.00
52511;BME280;63918;51.700;17.998;2022-11-02T07:12:45;100434.83;;;11.29;100.00
52511;BME280;63918;51.700;17.998;2022-11-02T07:15:12;100431.89;;;11.31;100.00
52511;BME280;63918;51.700;17.998;2022-11-02T07:17:39;100431.41;;;11.40;100.00
52511;BME280;63918;51.700;17.998;2022-11-02T07:20:06;100432.17;;;11.88;100.00
52511;BME280;63918;51.700;17.998;2022-11-02T07:22:36;100433.14;;;12.05;100.00
52511;BME280;63918;51.700;17.998;2022-11-02T07:25:02;100436.68;;;11.90;100.00
52511;BME280;63918;51.700;17.998;2022-11-02T07:27:29;100437.39;;;11.68;100.00
52511;BME280;63918;51.700;17.998;2022-11-02T07:29:56;100436.06;;;11.61;100.00
52511;BME280;63918;51.700;17.998;2022-11-02T07:32:23;100436.20;;;11.77;100.00
52511;BME280;63918;51.700;17.998;2022-11-02T07:34:51;100437.27;;;12.14;100.00
52511;BME280;63918;51.700;17.998;2022-11-02T07:37:17;100436.94;;;12.29;100.00
52511;BME280;63918;51.700;17.998;2022-11-02T07:39:43;100435.71;;;11.96;100.00
52511;BME280;63918;51.700;17.998;2022-11-02T07:42:10;100434.20;;;11.85;100.00
52511;BME280;63918;51.700;17.998;2022-11-02T07:44:37;100434.15;;;12.08;100.00
52511;BME280;63918;51.700;17.998;2022-11-02T07:47:04;100443.55;;;12.59;100.00
52511;BME280;63918;51.700;17.998;2022-11-02T07:49:30;100444.13;;;12.41;100.00
52511;BME280;63918;51.700;17.998;2022-11-02T07:51:57;100443.17;;;12.29;100.00
52511;BME280;63918;51.700;17.998;2022-11-02T07:54:23;100441.85;;;12.20;100.00
52511;BME280;63918;51.700;17.998;2022-11-02T07:56:50;100442.14;;;12.32;100.00
52511;BME280;63918;51.700;17.998;2022-11-02T07:59:16;100442.15;;;12.10;100.00
52511;BME280;63918;51.700;17.998;2022-11-02T08:01:43;100443.84;;;11.48;100.00
52511;BME280;63918;51.700;17.998;2022-11-02T08:04:09;100440.54;;;11.32;100.00
52511;BME280;63918;51.700;17.998;2022-11-02T08:06:36;100441.59;;;11.52;100.00
52511;BME280;63918;51.700;17.998;2022-11-02T08:09:02;100440.97;;;11.71;100.00
52511;BME280;63918;51.700;17.998;2022-11-02T08:11:49;100448.84;;;12.24;100.00
52511;BME280;63918;51.700;17.998;2022-11-02T08:14:15;100450.39;;;12.28;100.00
52511;BME280;63918;51.700;17.998;2022-11-02T08:16:42;100446.15;;;12.06;100.00
52511;BME280;63918;51.700;17.998;2022-11-02T08:19:09;100450.73;;;12.14;100.00
52511;BME280;63918;51.700;17.998;2022-11-02T08:21:36;100449.48;;;12.55;100.00
52511;BME280;63918;51.700;17.998;2022-11-02T08:24:03;100452.05;;;12.46;100.00
52511;BME280;63918;51.700;17.998;2022-11-02T08:26:29;100450.61;;;12.73;100.00
52511;BME280;63918;51.700;17.998;2022-11-02T08:28:56;100447.30;;;13.05;98.09
52511;BME280;63918;51.700;17.998;2022-11-02T08:31:22;100444.70;;;13.18;95.23
52511;BME280;63918;51.700;17.998;2022-11-02T08:33:49;100443.60;;;13.58;93.60
52511;BME280;63918;51.700;17.998;2022-11-02T08:36:16;100435.63;;;13.62;92.45
52511;BME280;63918;51.700;17.998;2022-11-02T08:38:42;100429.54;;;13.53;91.83
52511;BME280;63918;51.700;17.998;2022-11-02T08:41:09;100427.42;;;13.90;90.61
52511;BME280;63918;51.700;17.998;2022-11-02T08:43:35;100423.24;;;14.23;89.42
52511;BME280;63918;51.700;17.998;2022-11-02T08:46:02;100422.59;;;14.21;88.88
52511;BME280;63918;51.700;17.998;2022-11-02T08:48:29;100427.73;;;14.02;87.66
52511;BME280;63918;51.700;17.998;2022-11-02T08:50:56;100425.67;;;14.34;87.33
52511;BME280;63918;51.700;17.998;2022-11-02T08:53:22;100430.97;;;14.26;86.94
52511;BME280;63918;51.700;17.998;2022-11-02T08:55:49;100434.17;;;14.18;87.27
52511;BME280;63918;51.700;17.998;2022-11-02T08:58:16;100436.98;;;14.30;87.07
52511;BME280;63918;51.700;17.998;2022-11-02T09:00:43;100434.64;;;14.50;85.11
52511;BME280;63918;51.700;17.998;2022-11-02T09:03:12;100434.27;;;14.56;85.13
52511;BME280;63918;51.700;17.998;2022-11-02T09:05:41;100431.21;;;14.62;83.95
52511;BME280;63918;51.700;17.998;2022-11-02T09:08:16;100432.95;;;14.65;83.80
52511;BME280;63918;51.700;17.998;2022-11-02T09:10:45;100431.19;;;14.72;82.86
52511;BME280;63918;51.700;17.998;2022-11-02T09:13:14;100427.86;;;14.90;81.97
52511;BME280;63918;51.700;17.998;2022-11-02T09:15:41;100429.12;;;14.19;83.89
52511;BME280;63918;51.700;17.998;2022-11-02T09:18:07;100420.86;;;14.47;84.85
52511;BME280;63918;51.700;17.998;2022-11-02T09:20:35;100420.35;;;15.07;81.02
52511;BME280;63918;51.700;17.998;2022-11-02T09:23:01;100422.69;;;14.99;81.47
52511;BME280;63918;51.700;17.998;2022-11-02T09:25:28;100422.02;;;15.58;77.78
52511;BME280;63918;51.700;17.998;2022-11-02T09:27:55;100421.52;;;15.92;76.95
52511;BME280;63918;51.700;17.998;2022-11-02T09:30:23;100429.19;;;16.24;75.77
52511;BME280;63918;51.700;17.998;2022-11-02T09:32:54;100431.14;;;15.79;75.66
52511;BME280;63918;51.700;17.998;2022-11-02T09:35:21;100427.52;;;16.05;75.17
52511;BME280;63918;51.700;17.998;2022-11-02T09:37:48;100429.55;;;16.32;73.94
52511;BME280;63918;51.700;17.998;2022-11-02T09:40:19;100428.23;;;16.39;72.96
52511;BME280;63918;51.700;17.998;2022-11-02T09:43:00;100426.14;;;16.20;72.53
52511;BME280;63918;51.700;17.998;2022-11-02T09:45:32;100426.47;;;16.82;70.38
52511;BME280;63918;51.700;17.998;2022-11-02T09:48:32;100422.13;;;16.49;69.49
52511;BME280;63918;51.700;17.998;2022-11-02T09:51:04;100424.70;;;16.11;68.04
52511;BME280;63918;51.700;17.998;2022-11-02T09:54:07;100419.02;;;16.21;65.90
52511;BME280;63918;51.700;17.998;2022-11-02T09:56:39;100425.39;;;16.65;64.95
52511;BME280;63918;51.700;17.998;2022-11-02T09:59:15;100421.38;;;16.26;65.10
52511;BME280;63918;51.700;17.998;2022-11-02T10:01:48;100419.51;;;16.54;66.45
52511;BME280;63918;51.700;17.998;2022-11-02T10:07:34;100428.48;;;16.72;64.68
52511;BME280;63918;51.700;17.998;2022-11-02T10:10:25;100430.07;;;17.11;62.46
52511;BME280;63918;51.700;17.998;2022-11-02T10:13:01;100425.77;;;17.10;62.02
52511;BME280;63918;51.700;17.998;2022-11-02T10:15:50;100428.61;;;17.08;62.63
52511;BME280;63918;51.700;17.998;2022-11-02T10:18:24;100424.21;;;17.73;60.92
52511;BME280;63918;51.700;17.998;2022-11-02T10:20:59;100419.31;;;16.99;61.96
52511;BME280;63918;51.700;17.998;2022-11-02T10:23:37;100418.85;;;17.08;63.15
52511;BME280;63918;51.700;17.998;2022-11-02T10:26:12;100416.95;;;17.08;62.09
52511;BME280;63918;51.700;17.998;2022-11-02T10:28:46;100420.44;;;17.12;62.76
52511;BME280;63918;51.700;17.998;2022-11-02T10:31:22;100417.71;;;17.98;59.55
52511;BME280;63918;51.700;17.998;2022-11-02T10:33:52;100416.98;;;17.47;59.87
52511;BME280;63918;51.700;17.998;2022-11-02T10:42:12;100419.16;;;17.17;61.63
52511;BME280;63918;51.700;17.998;2022-11-02T10:47:24;100413.55;;;17.59;58.67
52511;BME280;63918;51.700;17.998;2022-11-02T10:52:37;100419.11;;;17.63;58.56
52511;BME280;63918;51.700;17.998;2022-11-02T10:55:09;100421.33;;;17.17;59.98
52511;BME280;63918;51.700;17.998;2022-11-02T10:57:40;100418.91;;;17.97;58.63
52511;BME280;63918;51.700;17.998;2022-11-02T11:03:17;100424.52;;;17.52;58.55
52511;BME280;63918;51.700;17.998;2022-11-02T11:05:54;100418.90;;;16.85;59.86
52511;BME280;63918;51.700;17.998;2022-11-02T11:08:28;100424.31;;;17.36;59.57
52511;BME280;63918;51.700;17.998;2022-11-02T11:11:21;100419.14;;;17.10;58.76
52511;BME280;63918;51.700;17.998;2022-11-02T11:14:13;100422.98;;;16.96;59.15
52511;BME280;63918;51.700;17.998;2022-11-02T11:16:43;100420.91;;;17.08;58.94
52511;BME280;63918;51.700;17.998;2022-11-02T11:19:22;100422.81;;;17.60;56.82
52511;BME280;63918;51.700;17.998;2022-11-02T11:21:50;100421.50;;;17.61;57.25
52511;BME280;63918;51.700;17.998;2022-11-02T11:24:23;100418.52;;;17.10;57.80
52511;BME280;63918;51.700;17.998;2022-11-02T11:29:44;100415.02;;;17.41;57.15
52511;BME280;63918;51.700;17.998;2022-11-02T11:32:29;100412.11;;;17.96;55.21
52511;BME280;63918;51.700;17.998;2022-11-02T11:37:25;100401.00;;;17.93;56.11
52511;BME280;63918;51.700;17.998;2022-11-02T11:39:56;100401.92;;;17.85;56.35
52511;BME280;63918;51.700;17.998;2022-11-02T11:42:27;100400.67;;;17.20;56.36
52511;BME280;63918;51.700;17.998;2022-11-02T11:45:05;100399.34;;;17.49;56.02
52511;BME280;63918;51.700;17.998;2022-11-02T11:47:35;100391.11;;;17.38;55.19
52511;BME280;63918;51.700;17.998;2022-11-02T11:50:06;100388.86;;;17.59;55.24
52511;BME280;63918;51.700;17.998;2022-11-02T11:52:38;100388.53;;;17.30;55.86
52511;BME280;63918;51.700;17.998;2022-11-02T11:58:03;100383.73;;;17.87;54.74
52511;BME280;63918;51.700;17.998;2022-11-02T12:00:31;100383.66;;;17.87;55.19
52511;BME280;63918;51.700;17.998;2022-11-02T12:03:06;100379.84;;;17.54;54.77
52511;BME280;63918;51.700;17.998;2022-11-02T12:08:37;100367.48;;;17.65;54.88
52511;BME280;63918;51.700;17.998;2022-11-02T12:11:17;100366.55;;;17.98;54.02
52511;BME280;63918;51.700;17.998;2022-11-02T12:20:24;100361.69;;;18.12;52.90
52511;BME280;63918;51.700;17.998;2022-11-02T12:30:50;100358.95;;;18.12;53.55
52511;BME280;63918;51.700;17.998;2022-11-02T12:41:20;100354.40;;;17.52;54.31
52511;BME280;63918;51.700;17.998;2022-11-02T12:55:05;100351.73;;;18.15;53.87
52511;BME280;63918;51.700;17.998;2022-11-02T12:57:39;100351.00;;;18.26;53.80
52511;BME280;63918;51.700;17.998;2022-11-02T13:00:14;100351.54;;;18.39;53.54
52511;BME280;63918;51.700;17.998;2022-11-02T13:03:05;100356.82;;;17.49;55.78
52511;BME280;63918;51.700;17.998;2022-11-02T13:05:37;100362.55;;;17.26;56.79
52511;BME280;63918;51.700;17.998;2022-11-02T13:08:33;100363.30;;;17.46;55.86
52511;BME280;63918;51.700;17.998;2022-11-02T13:11:07;100365.15;;;17.23;56.64
52511;BME280;63918;51.700;17.998;2022-11-02T13:13:41;100368.15;;;17.20;56.90
52511;BME280;63918;51.700;17.998;2022-11-02T13:16:09;100362.77;;;17.39;56.75
52511;BME280;63918;51.700;17.998;2022-11-02T13:18:43;100364.54;;;16.93;57.79
52511;BME280;63918;51.700;17.998;2022-11-02T13:21:15;100362.27;;;16.78;58.21
52511;BME280;63918;51.700;17.998;2022-11-02T13:23:49;100360.64;;;17.27;57.37
52511;BME280;63918;51.700;17.998;2022-11-02T13:26:54;100359.81;;;17.20;57.42
52511;BME280;63918;51.700;17.998;2022-11-02T13:29:20;100360.61;;;17.42;57.59
52511;BME280;63918;51.700;17.998;2022-11-02T13:31:52;100361.25;;;17.48;56.57
52511;BME280;63918;51.700;17.998;2022-11-02T13:34:34;100359.70;;;17.63;57.26
52511;BME280;63918;51.700;17.998;2022-11-02T13:37:10;100359.35;;;17.28;57.79
52511;BME280;63918;51.700;17.998;2022-11-02T13:39:41;100356.06;;;17.17;58.36
52511;BME280;63918;51.700;17.998;2022-11-02T13:47:46;100358.06;;;16.21;60.18
52511;BME280;63918;51.700;17.998;2022-11-02T13:50:19;100360.23;;;16.35;60.29
52511;BME280;63918;51.700;17.998;2022-11-02T13:52:53;100359.98;;;16.38;61.03
52511;BME280;63918;51.700;17.998;2022-11-02T13:55:40;100358.53;;;16.46;61.50
52511;BME280;63918;51.700;17.998;2022-11-02T13:58:31;100357.86;;;16.07;62.64
52511;BME280;63918;51.700;17.998;2022-11-02T14:01:02;100360.78;;;15.30;64.41
52511;BME280;63918;51.700;17.998;2022-11-02T14:03:49;100359.99;;;15.04;65.24
52511;BME280;63918;51.700;17.998;2022-11-02T14:06:19;100366.14;;;14.74;67.18
52511;BME280;63918;51.700;17.998;2022-11-02T14:08:57;100360.78;;;14.42;69.04
52511;BME280;63918;51.700;17.998;2022-11-02T14:11:35;100366.10;;;14.20;70.00
52511;BME280;63918;51.700;17.998;2022-11-02T14:19:47;100370.95;;;13.94;72.83
52511;BME280;63918;51.700;17.998;2022-11-02T14:22:16;100372.02;;;13.92;73.77
52511;BME280;63918;51.700;17.998;2022-11-02T14:48:02;100379.10;;;14.01;75.56